Arcadia, Kansas
Current Conditions -  °F | °C
As of 1:35 PM on Thursday 30 Oct 2014 (Local Time) from KPTS Reporting Station
Clear Clear  
Wind Chill: 70°   Ceiling: Unl
Heat Index: 70°   Visibility: 10mi
Dew Point: 44°   Wind: 12mph
Humidity: 40%   Direction: 330°NNW
Pressure: 30.02"   Gusts: 22mph
Location:  37.64°N, 94.62°W
Report Text: KPTS 301835Z AUTO 33010G19KT 290V350 10SM CLR 21/07 A3002 RMK AO2 T02110069
Loading
Personal Weather Stations






























Interactive Weather Map New forecast layout! Learn more

10-Day Weather Forecast

Advertisements
Track Severe Weather on mobile